Accueil
METAR-TAF:

METAR-TAF

Aéroports :

Aéroport de Savannakhet

Savannakhet, Laos

latitude: 16-33-24N, longitude: 104-45-34E, altitude: 155 m

Observation

Le bulletin a été fait il y a 44 minutes, à 09:00 UTC
Vent 2 kt de sud-est
Température 33°C
Humidité 44%
Pression 1007 hPa
Visibilité: 7000 m
Nuages épars à une hauteur de 2000 ft
Nuages épars à une hauteur de 10000 ft

METAR: VLSK 030900Z 14002KT 7000 SCT020 SCT100 33/19 Q1007 NOSIG

Heure: 16:44 (09:44 UTC)

Prévision

Le bulletin a été fait il y a 4 heures et 44 minutes, à 05:00 UTC
Prévision valable du 03 à 06 UTC au 04 à 06 UTC
Vent 4 kt de sud
Visibilité: 8000 m
Nuages épars à une hauteur de 2000 ft
Nuages fragmentés à une hauteur de 10000 ft

TAF: VLSK 030500Z 0306/0406 18004KT 8000 SCT020 BKN100

Observations et prévisions météorologiques de plus de 4000 aéroports (messages METAR et TAF).

Les stations disponibles sont représentées par des disques jaunes et rouges sur la carte.

Passer la souris dessus pour voir le nom de la station.

Cliquer dessus pour voir les observations et prévisions météorologiques.

Pour changer de carte: cliquez sur les boutons verts avec une croix noire pour zoomer, sur le bouton vert avec un tiret pour effectuer un zoom arrière, ou sur les flèches vertes pour les cartes adjacentes.


METAR-TAF: